createdAt,value
2019-05-07T00:01:05.041Z,8.50
2019-05-07T00:03:33.938Z,8.50
2019-05-07T00:06:02.984Z,8.50
2019-05-07T00:08:33.432Z,8.40
2019-05-07T00:11:02.808Z,8.40
2019-05-07T00:13:33.368Z,8.30
2019-05-07T00:16:02.675Z,8.30
2019-05-07T00:18:32.315Z,8.30
2019-05-07T00:21:03.527Z,8.20
2019-05-07T00:23:32.628Z,8.10
2019-05-07T00:26:03.377Z,8.10
2019-05-07T00:28:32.581Z,8.20
2019-05-07T00:31:02.896Z,8.20
2019-05-07T00:33:32.987Z,8.20
2019-05-07T00:36:17.062Z,8.30
2019-05-07T00:38:48.916Z,8.30
2019-05-07T00:41:39.809Z,8.20
2019-05-07T00:44:09.417Z,8.20
2019-05-07T00:46:38.429Z,8.20
2019-05-07T00:49:07.403Z,8.20
2019-05-07T00:51:36.881Z,8.30
2019-05-07T00:54:07.868Z,8.30
2019-05-07T00:56:36.739Z,8.30
2019-05-07T00:59:05.705Z,8.30
2019-05-07T01:01:35.456Z,8.30
2019-05-07T01:04:04.417Z,8.20
2019-05-07T01:06:33.417Z,8.20
2019-05-07T01:09:03.669Z,8.20
2019-05-07T01:11:52.266Z,8.20
2019-05-07T01:14:22.823Z,8.10
2019-05-07T01:16:52.889Z,8.10
2019-05-07T01:19:22.604Z,8.00
2019-05-07T01:21:52.479Z,8.00
2019-05-07T01:24:23.259Z,8.00
2019-05-07T01:26:52.994Z,8.00
2019-05-07T01:29:22.774Z,8.00
2019-05-07T01:32:00.541Z,8.00
2019-05-07T01:34:42.970Z,8.00
2019-05-07T01:37:12.395Z,8.00
2019-05-07T01:39:42.166Z,7.90
2019-05-07T01:42:12.730Z,8.00
2019-05-07T01:44:42.161Z,8.00
2019-05-07T01:47:13.108Z,7.90
2019-05-07T01:49:42.424Z,7.90
2019-05-07T01:52:13.290Z,8.00
2019-05-07T01:54:42.604Z,7.90
2019-05-07T01:57:12.288Z,7.90
2019-05-07T01:59:42.712Z,7.80
2019-05-07T02:02:24.163Z,7.80
2019-05-07T02:05:12.339Z,7.90
2019-05-07T02:07:46.961Z,8.00
2019-05-07T02:10:35.988Z,8.00
2019-05-07T02:13:04.857Z,8.00
2019-05-07T02:15:33.663Z,8.00
2019-05-07T02:18:02.628Z,7.90
2019-05-07T02:20:32.206Z,7.90
2019-05-07T02:23:02.750Z,7.90
2019-05-07T02:25:32.746Z,7.90
2019-05-07T02:28:02.408Z,7.90
2019-05-07T02:30:34.543Z,7.90
2019-05-07T02:33:03.681Z,7.80
2019-05-07T02:35:33.440Z,7.80
2019-05-07T02:38:23.044Z,7.90
2019-05-07T02:41:02.715Z,7.80
2019-05-07T02:43:33.472Z,7.90
2019-05-07T02:46:26.121Z,7.80
2019-05-07T02:48:53.799Z,7.90
2019-05-07T02:51:37.853Z,7.90
2019-05-07T02:54:16.989Z,7.80
2019-05-07T02:56:45.897Z,7.80
2019-05-07T02:59:15.014Z,7.90
2019-05-07T03:01:44.140Z,7.80
2019-05-07T03:04:13.129Z,7.80
2019-05-07T03:06:44.236Z,7.70
2019-05-07T03:09:14.497Z,7.60
2019-05-07T03:11:43.652Z,7.70
2019-05-07T03:14:14.206Z,7.70
2019-05-07T03:16:48.919Z,7.70
2019-05-07T03:19:14.916Z,7.70
2019-05-07T03:21:54.101Z,7.70
2019-05-07T03:24:46.565Z,7.60
2019-05-07T03:27:15.699Z,7.60
2019-05-07T03:29:53.383Z,7.40
2019-05-07T03:32:47.583Z,7.50
2019-05-07T03:35:27.220Z,7.50
2019-05-07T03:37:56.734Z,7.50
2019-05-07T03:40:25.737Z,7.50
2019-05-07T03:42:54.721Z,7.50
2019-05-07T03:45:33.522Z,7.50
2019-05-07T03:48:13.808Z,7.50
2019-05-07T03:50:43.395Z,7.40
2019-05-07T03:53:14.223Z,7.50
2019-05-07T03:55:44.665Z,7.50
2019-05-07T03:58:14.784Z,7.40
2019-05-07T04:00:44.775Z,7.40
2019-05-07T04:03:18.771Z,7.40
2019-05-07T04:05:44.657Z,7.40
2019-05-07T04:08:13.673Z,7.30
2019-05-07T04:10:44.153Z,7.30
2019-05-07T04:13:13.844Z,7.30
2019-05-07T04:15:44.182Z,7.20
2019-05-07T04:18:13.668Z,7.20
2019-05-07T04:20:43.781Z,7.30
2019-05-07T04:23:13.751Z,7.30
2019-05-07T04:25:54.916Z,7.20
2019-05-07T04:28:43.634Z,7.30
2019-05-07T04:31:14.085Z,7.30
2019-05-07T04:33:43.949Z,7.20
2019-05-07T04:36:34.141Z,7.20
2019-05-07T04:39:04.160Z,7.20
2019-05-07T04:41:33.269Z,7.20
2019-05-07T04:44:03.563Z,7.30
2019-05-07T04:46:33.686Z,7.20
2019-05-07T04:49:03.614Z,7.20
2019-05-07T04:51:54.436Z,7.10
2019-05-07T04:54:23.826Z,7.00
2019-05-07T04:56:53.319Z,7.00
2019-05-07T04:59:23.689Z,6.90
2019-05-07T05:01:59.339Z,6.90
2019-05-07T05:04:34.011Z,6.90
2019-05-07T05:06:58.629Z,6.80
2019-05-07T05:09:27.483Z,6.80
2019-05-07T05:11:56.388Z,6.70
2019-05-07T05:14:25.468Z,6.70
2019-05-07T05:16:54.275Z,6.70
2019-05-07T05:19:23.315Z,6.80
2019-05-07T05:22:10.176Z,6.80
2019-05-07T05:24:43.132Z,6.90
2019-05-07T05:27:12.284Z,6.90
2019-05-07T05:29:42.994Z,6.90
2019-05-07T05:32:12.408Z,6.90
2019-05-07T05:34:42.565Z,6.80
2019-05-07T05:37:12.024Z,6.80
2019-05-07T05:39:42.675Z,6.80
2019-05-07T05:42:34.130Z,6.90
2019-05-07T05:45:03.066Z,7.00
2019-05-07T05:47:32.964Z,7.00
2019-05-07T05:50:02.846Z,7.00
2019-05-07T05:52:38.604Z,7.00
2019-05-07T05:55:12.829Z,7.00
2019-05-07T05:57:52.013Z,7.10
2019-05-07T06:00:43.234Z,7.00
2019-05-07T06:03:26.605Z,7.10
2019-05-07T06:06:23.689Z,7.20
2019-05-07T06:09:14.512Z,7.20
2019-05-07T06:12:06.911Z,7.30
2019-05-07T06:14:42.992Z,7.40
2019-05-07T06:17:32.041Z,7.40
2019-05-07T06:20:23.309Z,7.50
2019-05-07T06:23:12.857Z,7.50
2019-05-07T06:25:43.534Z,7.60
2019-05-07T06:28:12.812Z,7.60
2019-05-07T06:30:42.016Z,7.60
2019-05-07T06:33:12.406Z,7.70
2019-05-07T06:35:42.906Z,7.70
2019-05-07T06:38:13.332Z,7.90
2019-05-07T06:41:16.816Z,8.00
2019-05-07T06:43:51.987Z,8.00
2019-05-07T06:46:20.507Z,8.10
2019-05-07T06:48:49.415Z,8.10
2019-05-07T06:51:18.444Z,8.20
2019-05-07T06:53:47.395Z,8.30
2019-05-07T06:56:16.544Z,8.40
2019-05-07T06:59:13.844Z,8.50
2019-05-07T07:02:02.210Z,8.60
2019-05-07T07:04:56.048Z,8.70
2019-05-07T07:07:44.206Z,8.80
2019-05-07T07:10:32.228Z,8.80
2019-05-07T07:13:02.387Z,8.80
2019-05-07T07:15:32.136Z,8.90
2019-05-07T07:18:03.181Z,9.00
2019-05-07T07:20:32.741Z,9.00
2019-05-07T07:23:13.907Z,9.10
2019-05-07T07:25:53.682Z,9.20
2019-05-07T07:28:27.596Z,9.20
2019-05-07T07:31:07.883Z,9.30
2019-05-07T07:33:44.492Z,9.40
2019-05-07T07:36:15.933Z,9.50
2019-05-07T07:38:44.813Z,9.60
2019-05-07T07:41:22.278Z,9.60
2019-05-07T07:43:52.583Z,9.70
2019-05-07T07:46:22.233Z,9.70
2019-05-07T07:49:06.789Z,9.80
2019-05-07T07:51:38.119Z,9.80
2019-05-07T07:53:56.319Z,9.80
2019-05-07T07:56:49.200Z,9.90
2019-05-07T07:59:23.589Z,9.90
2019-05-07T08:01:58.487Z,10.00
2019-05-07T08:04:27.484Z,10.10
2019-05-07T08:07:05.471Z,10.20
2019-05-07T08:09:35.404Z,10.20
2019-05-07T08:12:05.230Z,10.30
2019-05-07T08:14:34.468Z,10.40
2019-05-07T08:17:05.948Z,10.40
2019-05-07T08:19:35.117Z,10.40
2019-05-07T08:22:04.409Z,10.50
2019-05-07T08:24:33.724Z,10.60
2019-05-07T08:27:02.692Z,10.60
2019-05-07T08:29:32.688Z,10.60
2019-05-07T08:32:22.124Z,10.80
2019-05-07T08:34:55.365Z,10.80
2019-05-07T08:37:24.512Z,10.90
2019-05-07T08:39:53.748Z,11.00
2019-05-07T08:42:22.952Z,11.10
2019-05-07T08:45:02.270Z,11.20
2019-05-07T08:47:58.892Z,11.20
2019-05-07T08:50:27.962Z,11.20
2019-05-07T08:52:57.009Z,11.30
2019-05-07T08:55:25.970Z,11.50
2019-05-07T08:57:55.369Z,11.70
2019-05-07T09:00:24.368Z,11.80
2019-05-07T09:02:53.580Z,12.00
2019-05-07T09:05:22.904Z,12.10
2019-05-07T09:07:51.832Z,12.10
2019-05-07T09:10:21.837Z,12.20
2019-05-07T09:12:52.619Z,12.40
2019-05-07T09:15:22.622Z,12.50
2019-05-07T09:17:52.675Z,12.60
2019-05-07T09:20:22.817Z,12.70
2019-05-07T09:22:52.293Z,12.80
2019-05-07T09:25:22.262Z,12.90
2019-05-07T09:27:55.903Z,13.00
2019-05-07T09:30:47.221Z,13.20
2019-05-07T09:33:26.978Z,13.40
2019-05-07T09:35:56.490Z,13.60
2019-05-07T09:38:25.893Z,13.90
2019-05-07T09:40:57.131Z,13.80
2019-05-07T09:43:26.629Z,13.80
2019-05-07T09:45:55.532Z,13.90
2019-05-07T09:48:24.452Z,14.00
2019-05-07T09:50:53.610Z,14.10
2019-05-07T09:53:22.899Z,14.10
2019-05-07T09:55:52.052Z,14.30
2019-05-07T09:58:35.731Z,14.50
2019-05-07T10:00:54.992Z,14.70
2019-05-07T10:03:24.028Z,14.80
2019-05-07T10:05:52.939Z,14.70
2019-05-07T10:08:21.949Z,14.80
2019-05-07T10:10:53.214Z,14.80
2019-05-07T10:13:36.346Z,14.70
2019-05-07T10:16:07.657Z,14.60
2019-05-07T10:18:36.325Z,14.30
2019-05-07T10:21:05.524Z,14.30
2019-05-07T10:23:35.229Z,14.60
2019-05-07T10:26:04.524Z,14.70
2019-05-07T10:28:33.818Z,14.80
2019-05-07T10:31:02.785Z,14.80
2019-05-07T10:33:32.123Z,14.60
2019-05-07T10:36:02.066Z,14.50
2019-05-07T10:38:31.776Z,14.50
2019-05-07T10:41:02.693Z,14.60
2019-05-07T10:43:32.708Z,14.60
2019-05-07T10:46:20.624Z,14.60
2019-05-07T10:49:26.710Z,14.40
2019-05-07T10:51:55.748Z,14.20
2019-05-07T10:54:24.660Z,14.30
2019-05-07T10:56:53.520Z,14.30
2019-05-07T10:59:22.700Z,14.30
2019-05-07T11:02:03.980Z,14.30
2019-05-07T11:04:42.213Z,14.30
2019-05-07T11:07:04.112Z,14.40
2019-05-07T11:09:33.190Z,14.60
2019-05-07T11:12:02.648Z,14.60
2019-05-07T11:14:32.223Z,14.70
2019-05-07T11:17:22.327Z,14.70
2019-05-07T11:19:54.348Z,14.60
2019-05-07T11:22:23.917Z,14.70
2019-05-07T11:24:57.966Z,14.80
2019-05-07T11:27:33.047Z,15.00
2019-05-07T11:30:12.725Z,15.20
2019-05-07T11:32:44.892Z,15.30
2019-05-07T11:35:14.771Z,15.30
2019-05-07T11:37:44.324Z,15.50
2019-05-07T11:40:15.044Z,15.80
2019-05-07T11:43:05.826Z,16.40
2019-05-07T11:45:44.980Z,16.70
2019-05-07T11:48:14.408Z,16.90
2019-05-07T11:51:05.817Z,17.20
2019-05-07T11:53:34.760Z,17.40
2019-05-07T11:56:03.786Z,17.40
2019-05-07T11:58:32.770Z,17.30
2019-05-07T12:01:16.175Z,17.40
2019-05-07T12:03:45.084Z,17.60
2019-05-07T12:06:14.073Z,18.00
2019-05-07T12:08:48.226Z,18.00
2019-05-07T12:11:13.665Z,17.70
2019-05-07T12:13:42.823Z,17.60
2019-05-07T12:16:14.247Z,17.70
2019-05-07T12:18:44.596Z,17.80
2019-05-07T12:21:20.703Z,17.50
2019-05-07T12:23:45.100Z,17.50
2019-05-07T12:26:14.468Z,17.60
2019-05-07T12:28:43.584Z,17.70
2019-05-07T12:31:30.265Z,17.60
2019-05-07T12:34:08.049Z,17.50
2019-05-07T12:36:36.956Z,17.40
2019-05-07T12:39:08.796Z,18.00
2019-05-07T12:41:37.958Z,18.80
2019-05-07T12:44:08.464Z,20.00
2019-05-07T12:46:38.040Z,20.80
2019-05-07T12:49:08.225Z,20.70
2019-05-07T12:51:57.694Z,21.00
2019-05-07T12:54:36.695Z,20.70
2019-05-07T12:57:05.845Z,21.00
2019-05-07T12:59:34.816Z,21.70
2019-05-07T13:02:37.184Z,22.30
2019-05-07T13:04:53.340Z,22.80
2019-05-07T13:07:44.171Z,23.00
2019-05-07T13:10:13.128Z,22.70
2019-05-07T13:12:42.130Z,22.30
2019-05-07T13:15:23.947Z,21.80
2019-05-07T13:17:44.936Z,21.00
2019-05-07T13:20:14.605Z,19.70
2019-05-07T13:22:43.684Z,19.00
2019-05-07T13:25:12.620Z,18.70
2019-05-07T13:27:44.456Z,18.40
2019-05-07T13:30:14.193Z,18.00
2019-05-07T13:32:48.116Z,17.80
2019-05-07T13:35:16.449Z,17.70
2019-05-07T13:38:11.823Z,17.70
2019-05-07T13:41:12.755Z,17.70
2019-05-07T13:44:03.977Z,18.10
2019-05-07T13:46:33.956Z,17.90
2019-05-07T13:49:03.172Z,17.60
2019-05-07T13:51:33.897Z,17.60
2019-05-07T13:54:04.233Z,17.30
2019-05-07T13:56:33.526Z,17.20
2019-05-07T13:59:05.083Z,17.10
2019-05-07T14:02:04.731Z,17.10
2019-05-07T14:04:32.660Z,17.10
2019-05-07T14:07:02.298Z,17.00
2019-05-07T14:09:32.592Z,16.90
2019-05-07T14:12:02.221Z,16.70
2019-05-07T14:14:34.133Z,16.80
2019-05-07T14:17:02.460Z,16.80
2019-05-07T14:19:32.714Z,17.00
2019-05-07T14:22:14.820Z,17.20
2019-05-07T14:24:32.908Z,17.50
2019-05-07T14:27:02.187Z,17.80
2019-05-07T14:29:32.069Z,18.20
2019-05-07T14:32:26.818Z,18.70
2019-05-07T14:35:13.982Z,19.20
2019-05-07T14:37:49.731Z,19.30
2019-05-07T14:40:19.939Z,19.60
2019-05-07T14:42:54.228Z,19.00
2019-05-07T14:45:23.831Z,18.70
2019-05-07T14:47:52.973Z,18.60
2019-05-07T14:50:22.724Z,18.60
2019-05-07T14:52:54.931Z,18.60
2019-05-07T14:55:22.585Z,18.80
2019-05-07T14:57:52.486Z,18.50
2019-05-07T15:00:23.045Z,18.40
2019-05-07T15:02:52.621Z,18.20
2019-05-07T15:05:22.335Z,18.10
2019-05-07T15:07:51.924Z,17.80
2019-05-07T15:10:22.228Z,17.60
2019-05-07T15:12:52.273Z,17.60
2019-05-07T15:15:21.928Z,17.50
2019-05-07T15:18:00.033Z,17.70
2019-05-07T15:20:28.985Z,17.80
2019-05-07T15:23:17.160Z,18.10
2019-05-07T15:25:47.052Z,18.20
2019-05-07T15:28:16.985Z,18.20
2019-05-07T15:31:02.983Z,18.10
2019-05-07T15:33:32.385Z,18.10
2019-05-07T15:36:02.828Z,18.30
2019-05-07T15:38:32.517Z,18.40
2019-05-07T15:41:02.300Z,18.40
2019-05-07T15:43:32.363Z,18.50
2019-05-07T15:46:02.117Z,18.80
2019-05-07T15:48:32.698Z,19.40
2019-05-07T15:51:01.961Z,19.80
2019-05-07T15:53:42.826Z,20.10
2019-05-07T15:56:12.469Z,20.10
2019-05-07T15:58:42.609Z,20.40
2019-05-07T16:01:12.888Z,20.60
2019-05-07T16:03:43.627Z,20.90
2019-05-07T16:06:12.893Z,20.90
2019-05-07T16:08:51.760Z,20.90
2019-05-07T16:11:23.048Z,20.80
2019-05-07T16:14:09.376Z,20.60
2019-05-07T16:16:42.819Z,20.20
2019-05-07T16:19:20.221Z,20.20
2019-05-07T16:21:49.196Z,19.90
2019-05-07T16:24:18.139Z,19.40
2019-05-07T16:26:46.964Z,19.00
2019-05-07T16:29:15.995Z,19.00
2019-05-07T16:31:45.011Z,18.80
2019-05-07T16:34:13.989Z,18.60
2019-05-07T16:36:43.110Z,18.60
2019-05-07T16:39:12.503Z,18.60
2019-05-07T16:41:42.219Z,18.70
2019-05-07T16:44:12.196Z,18.70
2019-05-07T16:46:42.115Z,18.60
2019-05-07T16:49:12.181Z,18.60
2019-05-07T16:51:44.434Z,18.60
2019-05-07T16:54:12.312Z,18.60
2019-05-07T16:57:02.857Z,18.60
2019-05-07T16:59:32.316Z,18.60
2019-05-07T17:02:06.059Z,18.70
2019-05-07T17:04:35.009Z,18.70
2019-05-07T17:07:05.652Z,18.70
2019-05-07T17:09:35.507Z,18.60
2019-05-07T17:12:07.706Z,18.70
2019-05-07T17:14:36.612Z,18.70
2019-05-07T17:17:05.514Z,18.60
2019-05-07T17:19:34.384Z,18.50
2019-05-07T17:22:06.200Z,18.40
2019-05-07T17:24:33.764Z,18.30
2019-05-07T17:27:02.880Z,18.30
2019-05-07T17:29:32.218Z,18.20
2019-05-07T17:32:01.743Z,18.00
2019-05-07T17:34:31.092Z,18.00
2019-05-07T17:37:01.995Z,18.00
2019-05-07T17:39:32.180Z,17.90
2019-05-07T17:42:02.476Z,17.80
2019-05-07T17:44:32.326Z,17.80
2019-05-07T17:47:02.094Z,17.60
2019-05-07T17:49:32.426Z,17.50
2019-05-07T17:52:02.957Z,17.40
2019-05-07T17:54:32.351Z,17.30
2019-05-07T17:57:01.996Z,17.20
2019-05-07T17:59:32.190Z,17.10
2019-05-07T18:02:11.749Z,17.00
2019-05-07T18:04:50.875Z,17.00
2019-05-07T18:07:13.892Z,16.90
2019-05-07T18:09:42.875Z,16.80
2019-05-07T18:12:12.238Z,16.70
2019-05-07T18:14:42.379Z,16.70
2019-05-07T18:17:33.708Z,16.60
2019-05-07T18:20:03.152Z,16.60
2019-05-07T18:22:32.585Z,16.50
2019-05-07T18:25:01.838Z,16.40
2019-05-07T18:27:32.828Z,16.30
2019-05-07T18:30:02.821Z,16.20
2019-05-07T18:32:37.010Z,16.20
2019-05-07T18:35:06.408Z,16.00
2019-05-07T18:37:37.080Z,16.00
2019-05-07T18:40:06.296Z,15.90
2019-05-07T18:42:35.268Z,15.80
2019-05-07T18:45:04.729Z,15.70
2019-05-07T18:47:34.557Z,15.70
2019-05-07T18:50:03.683Z,15.50
2019-05-07T18:52:36.546Z,15.50
2019-05-07T18:55:05.677Z,15.40
2019-05-07T18:57:34.672Z,15.20
2019-05-07T19:00:06.180Z,15.10
2019-05-07T19:02:35.180Z,15.00
2019-05-07T19:05:04.597Z,14.90
2019-05-07T19:07:33.521Z,14.80
2019-05-07T19:10:02.798Z,14.80
2019-05-07T19:12:33.907Z,14.80
2019-05-07T19:15:03.069Z,14.70
2019-05-07T19:17:32.572Z,14.70
2019-05-07T19:20:03.412Z,14.60
2019-05-07T19:22:33.161Z,14.50
2019-05-07T19:25:03.126Z,14.50
2019-05-07T19:27:32.820Z,14.50
2019-05-07T19:30:02.144Z,14.50
2019-05-07T19:32:32.254Z,14.30
2019-05-07T19:35:01.533Z,14.30
2019-05-07T19:37:31.903Z,14.30
2019-05-07T19:40:02.075Z,14.20
2019-05-07T19:42:31.920Z,14.20
2019-05-07T19:45:02.659Z,14.10
2019-05-07T19:47:32.813Z,14.00
2019-05-07T19:50:02.157Z,13.90
2019-05-07T19:52:33.920Z,13.80
2019-05-07T19:55:05.026Z,13.80
2019-05-07T19:57:42.669Z,13.80
2019-05-07T20:00:14.062Z,13.80
2019-05-07T20:02:47.424Z,13.70
2019-05-07T20:05:16.434Z,13.70
2019-05-07T20:07:45.493Z,13.60
2019-05-07T20:10:22.061Z,13.50
2019-05-07T20:12:52.180Z,13.50
2019-05-07T20:15:22.385Z,13.50
2019-05-07T20:17:52.612Z,13.40
2019-05-07T20:20:22.204Z,13.40
2019-05-07T20:22:51.830Z,13.40
2019-05-07T20:25:22.588Z,13.30
2019-05-07T20:27:52.698Z,13.30
2019-05-07T20:30:22.878Z,13.30
2019-05-07T20:32:52.351Z,13.20
2019-05-07T20:35:21.509Z,13.10
2019-05-07T20:37:52.104Z,13.10
2019-05-07T20:40:22.698Z,13.00
2019-05-07T20:42:52.459Z,13.00
2019-05-07T20:45:23.767Z,13.10
2019-05-07T20:47:52.770Z,13.10
2019-05-07T20:50:22.348Z,13.10
2019-05-07T20:52:52.394Z,13.00
2019-05-07T20:55:43.737Z,12.90
2019-05-07T20:58:12.875Z,12.90
2019-05-07T21:00:43.354Z,12.90
2019-05-07T21:03:23.723Z,12.80
2019-05-07T21:05:53.618Z,12.80
2019-05-07T21:08:22.996Z,12.90
2019-05-07T21:10:53.522Z,12.90
2019-05-07T21:13:32.388Z,12.90
2019-05-07T21:15:53.772Z,12.80
2019-05-07T21:18:23.527Z,12.70
2019-05-07T21:20:53.100Z,12.60
2019-05-07T21:23:23.112Z,12.60
2019-05-07T21:25:53.007Z,12.60
2019-05-07T21:28:22.184Z,12.50
2019-05-07T21:30:52.187Z,12.40
2019-05-07T21:33:22.959Z,12.40
2019-05-07T21:35:52.563Z,12.30
2019-05-07T21:38:22.532Z,12.20
2019-05-07T21:40:51.658Z,12.10
2019-05-07T21:43:22.271Z,12.10
2019-05-07T21:45:52.964Z,12.10
2019-05-07T21:48:22.415Z,12.10
2019-05-07T21:50:52.098Z,12.10
2019-05-07T21:53:55.786Z,12.00
2019-05-07T21:56:43.861Z,12.00
2019-05-07T21:59:16.270Z,12.00
2019-05-07T22:01:47.592Z,12.00
2019-05-07T22:04:16.796Z,12.00
2019-05-07T22:06:46.176Z,12.00
2019-05-07T22:09:15.322Z,11.90
2019-05-07T22:11:44.228Z,11.90
2019-05-07T22:14:13.159Z,11.90
2019-05-07T22:16:42.348Z,11.90
2019-05-07T22:19:13.341Z,11.90
2019-05-07T22:21:43.172Z,11.90
2019-05-07T22:24:14.960Z,11.90
2019-05-07T22:26:43.264Z,11.90
2019-05-07T22:29:12.659Z,11.80
2019-05-07T22:31:55.517Z,11.70
2019-05-07T22:34:51.891Z,11.70
2019-05-07T22:37:21.960Z,11.60
2019-05-07T22:39:50.560Z,11.40
2019-05-07T22:42:19.482Z,11.40
2019-05-07T22:44:48.392Z,11.40
2019-05-07T22:47:22.704Z,11.30
2019-05-07T22:49:53.670Z,11.20
2019-05-07T22:52:23.780Z,11.20
2019-05-07T22:54:52.673Z,11.20
2019-05-07T22:57:36.581Z,11.20
2019-05-07T23:00:07.314Z,11.10
2019-05-07T23:02:36.201Z,11.00
2019-05-07T23:05:05.304Z,11.00
2019-05-07T23:07:34.308Z,11.00
2019-05-07T23:10:03.780Z,10.90
2019-05-07T23:12:32.814Z,10.90
2019-05-07T23:15:02.769Z,10.90
2019-05-07T23:17:32.628Z,10.90
2019-05-07T23:20:01.965Z,10.90
2019-05-07T23:22:32.439Z,10.80
2019-05-07T23:25:01.648Z,10.90
2019-05-07T23:27:32.518Z,10.90
2019-05-07T23:30:02.571Z,10.90
2019-05-07T23:32:32.956Z,10.90
2019-05-07T23:35:02.170Z,10.80
2019-05-07T23:37:33.098Z,10.60
2019-05-07T23:40:04.974Z,10.50
2019-05-07T23:42:36.162Z,10.50
2019-05-07T23:45:08.445Z,10.40
2019-05-07T23:47:37.336Z,10.30
2019-05-07T23:50:09.104Z,10.20
2019-05-07T23:52:38.096Z,10.20
2019-05-07T23:55:07.377Z,10.20
2019-05-07T23:57:36.528Z,10.20
